Time;durP1;ratioP1;P1;durP2;ratioP2;P2;SDS_P1;SDS_P2;PMS_P1;PMS_P2;Temp;Humidity;BMP_temperature;BMP_pressure;BME280_temperature;BME280_humidity;BME280_pressure;Samples;Min_cycle;Max_cycle;Signal;HPM_P1;HPM_P2
2023/01/24 00:04:00;;;;;;;;;;;;;;;2.46;100;104087.2;;;;-76
2023/01/24 00:08:52;;;;;;;;;;;;;;;2.43;100;104079.5;;;;-76
2023/01/24 00:13:53;;;;;;;;;;;;;;;2.44;100;104077.7;;;;-75
2023/01/24 00:18:51;;;;;;;;;;;;;;;2.43;100;104076.1;;;;-75
2023/01/24 00:19:05;;;;;;;16.2;7.2;;;;;;;;;;;;;-74
2023/01/24 00:23:55;;;;;;;;;;;;;;;2.42;100;104063.8;;;;-75
2023/01/24 00:29:00;;;;;;;;;;;;;;;2.42;100;104060.1;;;;-74
2023/01/24 00:39:09;;;;;;;;;;;;;;;2.48;100;104055;;;;-76
2023/01/24 00:47:22;;;;;;;;;;;;;;;2.41;100;104053.8;;;;-75
2023/01/24 00:49:33;;;;;;;17.7;7.6;;;;;;;;;;;;;-76
2023/01/24 00:57:21;;;;;;;;;;;;;;;2.41;100;104056;;;;-76
2023/01/24 01:02:29;;;;;;;;;;;;;;;;;;;;;
2023/01/24 01:17:18;;;;;;;;;;;;;;;;;;;;;
2023/01/24 01:18:29;;;;;;;;;;;;;;;;;;;;;
2023/01/24 01:19:49;;;;;;;15.2;6.9;;;;;;;;;;;;;-74
2023/01/24 01:30:05;;;;;;;;;;;;;;;2.46;100;104059.2;;;;-75
2023/01/24 01:43:15;;;;;;;;;;;;;;;2.38;100;104059.4;;;;-76
2023/01/24 01:49:24;;;;;;;14.7;6.9;;;;;;;;;;;;;-76
2023/01/24 02:13:26;;;;;;;;;;;;;;;2.35;100;104046.9;;;;-74
2023/01/24 02:18:30;;;;;;;;;;;;;;;2.34;100;104043.1;;;;-76
2023/01/24 02:23:47;;;;;;;;;;;;;;;;;;;;;
2023/01/24 02:33:34;;;;;;;;;;;;;;;2.33;100;104040;;;;-75
2023/01/24 02:43:11;;;;;;;;;;;;;;;;;;;;;
2023/01/24 02:45:14;;;;;;;;;;;;;;;2.43;100;104029.6;;;;-74
2023/01/24 02:49:31;;;;;;;16;7;;;;;;;;;;;;;-75
2023/01/24 02:50:01;;;;;;;;;;;;;;;2.24;100;104017.8;;;;-77
2023/01/24 02:54:58;;;;;;;;;;;;;;;2.33;100;104025.5;;;;-75
2023/01/24 03:00:03;;;;;;;;;;;;;;;2.31;100;104026.9;;;;-75
2023/01/24 03:04:46;;;;;;;;;;;;;;;2.31;100;104030.3;;;;-75
2023/01/24 03:35:39;;;;;;;;;;;;;;;2.28;100;104025;;;;-75
2023/01/24 03:40:39;;;;;;;;;;;;;;;2.27;100;104031.3;;;;-75
2023/01/24 03:45:42;;;;;;;;;;;;;;;2.26;100;104023.8;;;;-75
2023/01/24 03:49:16;;;;;;;15.6;7.1;;;;;;;;;;;;;-76
2023/01/24 03:55:50;;;;;;;;;;;;;;;2.24;100;104023.4;;;;-74
2023/01/24 04:05:44;;;;;;;;;;;;;;;2.24;100;104022.7;;;;-74
2023/01/24 04:10:39;;;;;;;;;;;;;;;2.22;100;104028.8;;;;-76
2023/01/24 04:15:39;;;;;;;;;;;;;;;2.24;100;104026.7;;;;-75
2023/01/24 04:19:12;;;;;;;14.2;6.3;;;;;;;;;;;;;-75
2023/01/24 04:20:40;;;;;;;;;;;;;;;2.23;100;104027.4;;;;-76
2023/01/24 04:30:52;;;;;;;;;;;;;;;2.22;100;104037.5;;;;-75
2023/01/24 04:35:48;;;;;;;;;;;;;;;2.21;100;104037.1;;;;-74
2023/01/24 04:40:51;;;;;;;;;;;;;;;2.21;100;104037.5;;;;-75
2023/01/24 04:43:30;;;;;;;;;;;;;;;2.3;100;104041.3;;;;-73
2023/01/24 04:47:30;;;;;;;;;;;;;;;2.21;100;104045.9;;;;-75
2023/01/24 04:49:58;;;;;;;;;;;;;;;2.27;100;104040.1;;;;-77
2023/01/24 04:51:13;;;;;;;;;;;;;;;;;;;;;
2023/01/24 04:55:12;;;;;;;;;;;;;;;2.2;100;104040.5;;;;-75
2023/01/24 05:00:01;;;;;;;;;;;;;;;2.2;100;104042;;;;-76
2023/01/24 05:04:53;;;;;;;;;;;;;;;2.19;100;104041.4;;;;-75
2023/01/24 05:10:27;;;;;;;;;;;;;;;;;;;;;
2023/01/24 05:15:08;;;;;;;;;;;;;;;2.18;100;104056.5;;;;-74
2023/01/24 05:19:32;;;;;;;;;;;;;;;2.25;100;104059.2;;;;-72
2023/01/24 05:20:43;;;;;;;;;;;;;;;2.27;100;104059;;;;-74
2023/01/24 05:25:01;;;;;;;;;;;;;;;2.19;100;104062.9;;;;-74
2023/01/24 05:29:44;;;;;;;;;;;;;;;2.3;100;104063.2;;;;-78
2023/01/24 05:31:54;;;;;;;;;;;;;;;2.28;100;104064.5;;;;-75
2023/01/24 05:39:52;;;;;;;;;;;;;;;2.16;100;104056.1;;;;-77
2023/01/24 05:50:16;;;;;;;;;;;;;;;;;;;;;
2023/01/24 05:55:09;;;;;;;;;;;;;;;2.23;100;104056.2;;;;-75
2023/01/24 05:58:20;;;;;;;;;;;;;;;2.15;100;104056;;;;-75
2023/01/24 06:03:37;;;;;;;;;;;;;;;;;;;;;
2023/01/24 06:13:30;;;;;;;;;;;;;;;;;;;;;
2023/01/24 06:18:40;;;;;;;;;;;;;;;2.12;100;104059.9;;;;-76
2023/01/24 06:19:22;;;;;;;16.8;7.8;;;;;;;;;;;;;-75
2023/01/24 06:28:32;;;;;;;;;;;;;;;2.12;100;104067.8;;;;-77
2023/01/24 06:33:27;;;;;;;;;;;;;;;2.1;100;104068.4;;;;-76
2023/01/24 06:38:28;;;;;;;;;;;;;;;2.1;100;104070.6;;;;-75
2023/01/24 06:43:33;;;;;;;;;;;;;;;2.09;100;104074.2;;;;-75
2023/01/24 06:48:31;;;;;;;;;;;;;;;2.08;100;104080.5;;;;-76
2023/01/24 06:49:15;;;;;;;17.7;7.6;;;;;;;;;;;;;-75
2023/01/24 06:53:20;;;;;;;;;;;;;;;2.08;100;104083.2;;;;-76
2023/01/24 06:58:31;;;;;;;;;;;;;;;2.06;100;104084.6;;;;-76
2023/01/24 07:03:25;;;;;;;;;;;;;;;2.07;100;104086.8;;;;-76
2023/01/24 07:08:52;;;;;;;;;;;;;;;2.09;100;104087.4;;;;-74
2023/01/24 07:17:00;;;;;;;;;;;;;;;2.06;100;104103.6;;;;-75
2023/01/24 07:19:05;;;;;;;15.3;7.3;;;;;;;;;;;;;-75
2023/01/24 07:21:57;;;;;;;;;;;;;;;2.04;100;104112.3;;;;-75
2023/01/24 07:26:57;;;;;;;;;;;;;;;2.05;100;104119.8;;;;-76
2023/01/24 07:32:04;;;;;;;;;;;;;;;2.03;100;104119.4;;;;-74
2023/01/24 07:36:57;;;;;;;;;;;;;;;2.03;100;104115.9;;;;-75
2023/01/24 07:41:57;;;;;;;;;;;;;;;2.03;100;104113.2;;;;-74
2023/01/24 07:46:57;;;;;;;;;;;;;;;2.02;100;104113.3;;;;-74
2023/01/24 07:49:04;;;;;;;18;7.7;;;;;;;;;;;;;-74
2023/01/24 07:52:00;;;;;;;;;;;;;;;2.01;100;104115.4;;;;-75
2023/01/24 07:56:59;;;;;;;;;;;;;;;2.01;100;104115.9;;;;-75
2023/01/24 08:01:57;;;;;;;;;;;;;;;2.02;100;104121.1;;;;-75
2023/01/24 08:07:29;;;;;;;;;;;;;;;2.02;100;104124.8;;;;-74
2023/01/24 08:12:00;;;;;;;;;;;;;;;2.01;100;104131.7;;;;-75
2023/01/24 08:16:57;;;;;;;;;;;;;;;2.02;100;104135.1;;;;-74
2023/01/24 08:19:04;;;;;;;16.2;7.5;;;;;;;;;;;;;-74
2023/01/24 08:22:02;;;;;;;;;;;;;;;2.02;100;104143.9;;;;-75
2023/01/24 08:26:57;;;;;;;;;;;;;;;2.02;100;104141.9;;;;-74
2023/01/24 08:31:57;;;;;;;;;;;;;;;2.02;100;104147.2;;;;-74
2023/01/24 08:36:57;;;;;;;;;;;;;;;2.03;100;104152.9;;;;-75
2023/01/24 08:41:57;;;;;;;;;;;;;;;2.04;100;104160.8;;;;-75
2023/01/24 08:46:57;;;;;;;;;;;;;;;2.05;100;104165.7;;;;-75
2023/01/24 08:49:03;;;;;;;18.8;7.5;;;;;;;;;;;;;-75
2023/01/24 08:51:58;;;;;;;;;;;;;;;2.06;100;104164.3;;;;-74
2023/01/24 08:56:57;;;;;;;;;;;;;;;2.06;100;104171;;;;-75
2023/01/24 09:02:06;;;;;;;;;;;;;;;2.07;100;104174.8;;;;-77
2023/01/24 09:06:58;;;;;;;;;;;;;;;2.08;100;104174.9;;;;-76
2023/01/24 09:11:57;;;;;;;;;;;;;;;2.1;100;104175.3;;;;-76
2023/01/24 09:17:01;;;;;;;;;;;;;;;2.1;100;104178;;;;-74
2023/01/24 09:19:03;;;;;;;17.9;8;;;;;;;;;;;;;-75
2023/01/24 09:21:58;;;;;;;;;;;;;;;2.12;100;104182.4;;;;-77
2023/01/24 09:26:57;;;;;;;;;;;;;;;2.13;100;104178.1;;;;-75
2023/01/24 09:32:00;;;;;;;;;;;;;;;2.15;100;104184.8;;;;-75
2023/01/24 09:36:57;;;;;;;;;;;;;;;2.16;100;104188.6;;;;-75
2023/01/24 09:42:02;;;;;;;;;;;;;;;2.16;100;104184.8;;;;-75
2023/01/24 09:46:58;;;;;;;;;;;;;;;2.2;100;104184.8;;;;-75
2023/01/24 09:49:13;;;;;;;15.8;7.7;;;;;;;;;;;;;-75
2023/01/24 09:52:00;;;;;;;;;;;;;;;2.21;100;104186.1;;;;-75
2023/01/24 09:56:58;;;;;;;;;;;;;;;2.22;100;104192.9;;;;-76
2023/01/24 10:01:59;;;;;;;;;;;;;;;2.24;100;104191.9;;;;-76
2023/01/24 10:07:14;;;;;;;;;;;;;;;2.27;100;104196.9;;;;-74
2023/01/24 10:12:03;;;;;;;;;;;;;;;2.29;100;104198.2;;;;-75
2023/01/24 10:17:08;;;;;;;;;;;;;;;2.3;100;104194.9;;;;-76
2023/01/24 10:19:14;;;;;;;16.1;8;;;;;;;;;;;;;-75
2023/01/24 10:22:17;;;;;;;;;;;;;;;2.32;100;104192.6;;;;-75
2023/01/24 10:27:04;;;;;;;;;;;;;;;2.34;100;104188.7;;;;-75
2023/01/24 10:32:03;;;;;;;;;;;;;;;2.36;100;104189.4;;;;-74
2023/01/24 10:41:57;;;;;;;;;;;;;;;2.41;100;104178.6;;;;-75
2023/01/24 10:47:08;;;;;;;;;;;;;;;2.42;100;104174.9;;;;-75
2023/01/24 10:49:04;;;;;;;16;7.3;;;;;;;;;;;;;-76
2023/01/24 10:52:17;;;;;;;;;;;;;;;2.43;100;104172.6;;;;-75
2023/01/24 10:57:00;;;;;;;;;;;;;;;2.46;100;104168.3;;;;-75
2023/01/24 11:02:10;;;;;;;;;;;;;;;2.47;100;104173.8;;;;-74
2023/01/24 11:07:00;;;;;;;;;;;;;;;2.48;100;104177.4;;;;-75
2023/01/24 11:11:58;;;;;;;;;;;;;;;2.5;100;104174.1;;;;-74
2023/01/24 11:17:02;;;;;;;;;;;;;;;2.5;100;104168.1;;;;-75
2023/01/24 11:19:20;;;;;;;15.4;7.2;;;;;;;;;;;;;-75
2023/01/24 11:22:01;;;;;;;;;;;;;;;2.5;100;104163.5;;;;-75
2023/01/24 11:27:10;;;;;;;;;;;;;;;2.53;100;104162.9;;;;-76
2023/01/24 11:31:57;;;;;;;;;;;;;;;2.53;100;104148.9;;;;-76
2023/01/24 11:37:04;;;;;;;;;;;;;;;2.54;100;104139.8;;;;-74
2023/01/24 11:42:01;;;;;;;;;;;;;;;2.56;100;104133.2;;;;-75
2023/01/24 11:47:01;;;;;;;;;;;;;;;2.58;100;104131.7;;;;-75
2023/01/24 11:49:12;;;;;;;15.4;7.3;;;;;;;;;;;;;-75
2023/01/24 11:52:08;;;;;;;;;;;;;;;2.6;100;104127.4;;;;-74
2023/01/24 11:57:01;;;;;;;;;;;;;;;2.63;100;104121.1;;;;-75
2023/01/24 12:02:04;;;;;;;;;;;;;;;2.64;100;104120.8;;;;-75
2023/01/24 12:07:01;;;;;;;;;;;;;;;2.66;100;104112.4;;;;-75
2023/01/24 12:12:01;;;;;;;;;;;;;;;2.68;100;104112.9;;;;-75
2023/01/24 12:17:03;;;;;;;;;;;;;;;2.69;100;104107.1;;;;-75
2023/01/24 12:19:11;;;;;;;14.5;7.1;;;;;;;;;;;;;-75
2023/01/24 12:22:08;;;;;;;;;;;;;;;2.71;100;104100.2;;;;-72
2023/01/24 12:27:05;;;;;;;;;;;;;;;2.72;100;104094;;;;-75
2023/01/24 12:32:04;;;;;;;;;;;;;;;2.72;100;104091.2;;;;-75
2023/01/24 12:37:00;;;;;;;;;;;;;;;2.72;100;104084.6;;;;-76
2023/01/24 12:42:00;;;;;;;;;;;;;;;2.73;100;104087.1;;;;-74
2023/01/24 12:47:05;;;;;;;;;;;;;;;2.73;100;104081.8;;;;-75
2023/01/24 12:49:11;;;;;;;15.4;7.2;;;;;;;;;;;;;-75
2023/01/24 12:52:06;;;;;;;;;;;;;;;2.73;100;104072.5;;;;-75
2023/01/24 12:57:01;;;;;;;;;;;;;;;2.74;100;104068.2;;;;-75
2023/01/24 13:02:18;;;;;;;;;;;;;;;2.75;100;104068.2;;;;-75
2023/01/24 13:07:08;;;;;;;;;;;;;;;2.75;100;104056.1;;;;-75
2023/01/24 13:11:58;;;;;;;;;;;;;;;2.76;100;104056.5;;;;-75
2023/01/24 13:17:10;;;;;;;;;;;;;;;2.77;100;104051.1;;;;-74
2023/01/24 13:19:10;;;;;;;16.8;7.9;;;;;;;;;;;;;-75
2023/01/24 13:21:59;;;;;;;;;;;;;;;2.78;100;104047.7;;;;-75
2023/01/24 13:27:02;;;;;;;;;;;;;;;2.77;100;104044.5;;;;-74
2023/01/24 13:32:03;;;;;;;;;;;;;;;2.76;100;104045.4;;;;-75
2023/01/24 13:37:08;;;;;;;;;;;;;;;2.75;100;104044.8;;;;-74
2023/01/24 13:42:07;;;;;;;;;;;;;;;2.76;100;104033.7;;;;-75
2023/01/24 13:47:06;;;;;;;;;;;;;;;2.76;100;104039.9;;;;-73
2023/01/24 13:49:08;;;;;;;17.2;8.6;;;;;;;;;;;;;-75
2023/01/24 13:52:02;;;;;;;;;;;;;;;2.76;100;104040.7;;;;-75
2023/01/24 13:57:15;;;;;;;;;;;;;;;2.77;100;104034.7;;;;-74
2023/01/24 14:01:56;;;;;;;;;;;;;;;2.77;100;104038.1;;;;-75
2023/01/24 14:06:59;;;;;;;;;;;;;;;2.76;100;104026.8;;;;-75
2023/01/24 14:12:04;;;;;;;;;;;;;;;2.75;100;104029.6;;;;-76
2023/01/24 14:17:04;;;;;;;;;;;;;;;2.74;100;104027.9;;;;-75
2023/01/24 14:19:12;;;;;;;18.3;8.9;;;;;;;;;;;;;-75
2023/01/24 14:22:02;;;;;;;;;;;;;;;2.74;100;104030.1;;;;-75
2023/01/24 14:26:59;;;;;;;;;;;;;;;2.72;100;104025.1;;;;-75
2023/01/24 14:32:04;;;;;;;;;;;;;;;2.7;100;104028.7;;;;-75
2023/01/24 14:37:06;;;;;;;;;;;;;;;2.69;100;104025.6;;;;-76
2023/01/24 14:41:58;;;;;;;;;;;;;;;2.67;100;104030.1;;;;-75
2023/01/24 14:47:06;;;;;;;;;;;;;;;2.65;100;104030.7;;;;-74
2023/01/24 14:49:14;;;;;;;20;8.8;;;;;;;;;;;;;-75
2023/01/24 14:51:56;;;;;;;;;;;;;;;2.63;100;104039.9;;;;-75
2023/01/24 14:56:56;;;;;;;;;;;;;;;2.6;100;104036.8;;;;-75
2023/01/24 15:07:18;;;;;;;;;;;;;;;2.55;100;104036.1;;;;-75
2023/01/24 15:17:19;;;;;;;;;;;;;;;2.49;100;104033.9;;;;-75
2023/01/24 15:19:07;;;;;;;21.4;10.1;;;;;;;;;;;;;-75
2023/01/24 15:21:58;;;;;;;;;;;;;;;2.49;100;104031;;;;-75
2023/01/24 15:27:08;;;;;;;;;;;;;;;2.47;100;104031.7;;;;-74
2023/01/24 15:31:57;;;;;;;;;;;;;;;2.45;100;104030.3;;;;-74
2023/01/24 15:37:04;;;;;;;;;;;;;;;2.43;100;104037.9;;;;-76
2023/01/24 15:49:12;;;;;;;21.2;10.4;;;;;;;;;;;;;-77
2023/01/24 15:52:16;;;;;;;;;;;;;;;2.34;100;104031.8;;;;-78
2023/01/24 15:56:57;;;;;;;;;;;;;;;2.31;100;104028.8;;;;-77
2023/01/24 16:01:56;;;;;;;;;;;;;;;2.29;100;104032.7;;;;-77
2023/01/24 16:06:56;;;;;;;;;;;;;;;2.27;100;104039;;;;-77
2023/01/24 16:12:01;;;;;;;;;;;;;;;2.23;100;104041.1;;;;-77
2023/01/24 16:16:59;;;;;;;;;;;;;;;2.21;100;104044.3;;;;-78
2023/01/24 16:19:03;;;;;;;21.6;10.4;;;;;;;;;;;;;-75
2023/01/24 16:21:57;;;;;;;;;;;;;;;2.16;100;104048.7;;;;-75
2023/01/24 16:27:00;;;;;;;;;;;;;;;2.14;100;104042.7;;;;-75
2023/01/24 16:34:06;;;;;;;;;;;;;;;2.15;100;104039.2;;;;-73
2023/01/24 16:43:09;;;;;;;;;;;;;;;2.07;100;104040.7;;;;-75
2023/01/24 17:09:15;;;;;;;;;;;;;;;2.05;100;104037.1;;;;-75
2023/01/24 17:13:24;;;;;;;;;;;;;;;;;;;;;
2023/01/24 17:20:08;;;;;;;;;;;;;;;1.98;100;104033.1;;;;-75
2023/01/24 17:36:45;;;;;;;;;;;;;;;1.84;100;104059.8;;;;-76
2023/01/24 17:41:45;;;;;;;;;;;;;;;1.83;100;104051.3;;;;-75
2023/01/24 17:46:59;;;;;;;;;;;;;;;1.8;100;104056.7;;;;-75
2023/01/24 17:49:23;;;;;;;19.8;9.3;;;;;;;;;;;;;-74
2023/01/24 17:52:14;;;;;;;;;;;;;;;1.86;100;104059.3;;;;-73
2023/01/24 18:04:03;;;;;;;;;;;;;;;1.86;100;104062.9;;;;-76
2023/01/24 18:06:43;;;;;;;;;;;;;;;1.77;100;104069.1;;;;-75
2023/01/24 18:21:48;;;;;;;;;;;;;;;1.75;100;104064;;;;-75
2023/01/24 18:45:04;;;;;;;;;;;;;;;;;;;;;
2023/01/24 18:49:56;;;;;;;;;;;;;;;1.73;100;104031.4;;;;-74
2023/01/24 19:19:39;;;;;;;18.2;8.2;;;;;;;;;;;;;-76
2023/01/24 20:57:37;;;;;;;;;;;;;;;1.42;100;104053.3;;;;-74
2023/01/24 21:07:40;;;;;;;;;;;;;;;;;;;;;
2023/01/24 21:39:08;;;;;;;;;;;;;;;1.44;100;104023.1;;;;-76
2023/01/24 21:54:59;;;;;;;;;;;;;;;1.34;100;104019.9;;;;-75
2023/01/24 22:11:38;;;;;;;;;;;;;;;1.4;100;104003.4;;;;-76
2023/01/24 22:15:58;;;;;;;;;;;;;;;1.31;100;104004.9;;;;-76
2023/01/24 22:19:04;;;;;;;19.4;8.6;;;;;;;;;;;;;-75
2023/01/24 22:21:12;;;;;;;;;;;;;;;1.32;100;104005.1;;;;-74
2023/01/24 22:40:03;;;;;;;;;;;;;;;1.33;100;104005.8;;;;-75
2023/01/24 22:44:48;;;;;;;;;;;;;;;1.22;100;103999;;;;-76
2023/01/24 22:50:25;;;;;;;;;;;;;;;1.16;100;103997.1;;;;-76
2023/01/24 22:56:15;;;;;;;;;;;;;;;1.31;100;103993.1;;;;-74
2023/01/24 23:01:03;;;;;;;;;;;;;;;1.34;100;103997.1;;;;-76
2023/01/24 23:05:10;;;;;;;;;;;;;;;1.2;100;103989.7;;;;-76
2023/01/24 23:23:17;;;;;;;;;;;;;;;1.25;100;103976.3;;;;-74
2023/01/24 23:26:21;;;;;;;;;;;;;;;1.16;100;103967.4;;;;-75
2023/01/24 23:31:19;;;;;;;;;;;;;;;1.16;100;103966.8;;;;-75
2023/01/24 23:56:15;;;;;;;;;;;;;;;1.13;100;103959.7;;;;-75
